Terminal Aerodrome Forecast
Issued by NWS

Home | Current Version | Previous Version | Text Only | Print | Product List | Glossary On
Versions: 1 2 3 4 5 6 7 8 9 10 11 12 13
000
FTUS45 KREV 271700
TAFMMH
TAF
KMMH 271731Z 2718/2818 27015G25KT P6SM VCSH SCT050 BKN100
     FM280200 25010KT 4SM -SHSN BKN025 OVC040
     FM280600 26006KT 6SM -SHSN SCT025 OVC040=

USA.gov is the U.S. government's official web portal to all federal, state and local government web resources and services.